sensor_id;sensor_type;location;lat;lon;timestamp;P1;durP1;ratioP1;P2;durP2;ratioP2
23596;SDS011;40226;50.874;4.394;2023-12-29T00:00:34;12.65;;;2.40;;
23596;SDS011;40226;50.874;4.394;2023-12-29T00:02:59;15.38;;;2.67;;
23596;SDS011;40226;50.874;4.394;2023-12-29T00:05:25;13.55;;;2.47;;
23596;SDS011;40226;50.874;4.394;2023-12-29T00:07:52;7.80;;;2.28;;
23596;SDS011;40226;50.874;4.394;2023-12-29T00:10:18;12.85;;;2.38;;
23596;SDS011;40226;50.874;4.394;2023-12-29T00:12:44;15.07;;;3.25;;
23596;SDS011;40226;50.874;4.394;2023-12-29T00:15:09;12.82;;;2.25;;
23596;SDS011;40226;50.874;4.394;2023-12-29T00:17:35;17.15;;;2.65;;
23596;SDS011;40226;50.874;4.394;2023-12-29T00:20:03;20.73;;;2.33;;
23596;SDS011;40226;50.874;4.394;2023-12-29T00:22:29;20.45;;;3.05;;
23596;SDS011;40226;50.874;4.394;2023-12-29T00:24:55;11.60;;;2.40;;
23596;SDS011;40226;50.874;4.394;2023-12-29T00:27:20;10.88;;;2.35;;
23596;SDS011;40226;50.874;4.394;2023-12-29T00:29:46;21.45;;;3.15;;
23596;SDS011;40226;50.874;4.394;2023-12-29T00:32:12;10.75;;;2.60;;
23596;SDS011;40226;50.874;4.394;2023-12-29T00:34:37;18.30;;;2.60;;
23596;SDS011;40226;50.874;4.394;2023-12-29T00:37:03;11.73;;;2.67;;
23596;SDS011;40226;50.874;4.394;2023-12-29T00:39:28;15.23;;;2.60;;
23596;SDS011;40226;50.874;4.394;2023-12-29T00:41:56;9.98;;;2.30;;
23596;SDS011;40226;50.874;4.394;2023-12-29T00:44:22;13.15;;;2.60;;
23596;SDS011;40226;50.874;4.394;2023-12-29T00:46:48;18.30;;;2.97;;
23596;SDS011;40226;50.874;4.394;2023-12-29T00:49:14;16.00;;;2.63;;
23596;SDS011;40226;50.874;4.394;2023-12-29T00:51:40;10.45;;;2.10;;
23596;SDS011;40226;50.874;4.394;2023-12-29T00:54:08;15.60;;;2.15;;
23596;SDS011;40226;50.874;4.394;2023-12-29T00:56:34;11.13;;;2.50;;
23596;SDS011;40226;50.874;4.394;2023-12-29T00:59:00;9.10;;;1.95;;
23596;SDS011;40226;50.874;4.394;2023-12-29T01:01:25;10.15;;;2.30;;
23596;SDS011;40226;50.874;4.394;2023-12-29T01:03:51;11.48;;;2.42;;
23596;SDS011;40226;50.874;4.394;2023-12-29T01:06:19;11.65;;;2.10;;
23596;SDS011;40226;50.874;4.394;2023-12-29T01:08:45;13.10;;;2.60;;
23596;SDS011;40226;50.874;4.394;2023-12-29T01:11:11;13.65;;;2.17;;
23596;SDS011;40226;50.874;4.394;2023-12-29T01:13:36;11.82;;;2.05;;
23596;SDS011;40226;50.874;4.394;2023-12-29T01:16:02;11.43;;;1.80;;
23596;SDS011;40226;50.874;4.394;2023-12-29T01:18:28;15.75;;;2.35;;
23596;SDS011;40226;50.874;4.394;2023-12-29T01:20:53;12.48;;;2.75;;
23596;SDS011;40226;50.874;4.394;2023-12-29T01:23:19;12.35;;;2.10;;
23596;SDS011;40226;50.874;4.394;2023-12-29T01:25:44;18.17;;;2.55;;
23596;SDS011;40226;50.874;4.394;2023-12-29T01:28:10;12.85;;;2.53;;
23596;SDS011;40226;50.874;4.394;2023-12-29T01:30:36;14.88;;;2.15;;
23596;SDS011;40226;50.874;4.394;2023-12-29T01:33:02;12.93;;;2.53;;
23596;SDS011;40226;50.874;4.394;2023-12-29T01:35:27;16.27;;;2.38;;
23596;SDS011;40226;50.874;4.394;2023-12-29T01:37:53;12.50;;;2.67;;
23596;SDS011;40226;50.874;4.394;2023-12-29T01:40:21;16.80;;;2.22;;
23596;SDS011;40226;50.874;4.394;2023-12-29T01:42:47;9.95;;;2.58;;
23596;SDS011;40226;50.874;4.394;2023-12-29T01:45:19;13.15;;;2.65;;
23596;SDS011;40226;50.874;4.394;2023-12-29T01:47:49;18.40;;;3.40;;
23596;SDS011;40226;50.874;4.394;2023-12-29T01:50:19;15.07;;;2.20;;
23596;SDS011;40226;50.874;4.394;2023-12-29T01:52:47;12.73;;;2.67;;
23596;SDS011;40226;50.874;4.394;2023-12-29T01:55:15;10.45;;;2.15;;
23596;SDS011;40226;50.874;4.394;2023-12-29T01:57:45;12.32;;;2.85;;
23596;SDS011;40226;50.874;4.394;2023-12-29T02:00:12;14.70;;;2.45;;
23596;SDS011;40226;50.874;4.394;2023-12-29T02:02:38;8.70;;;2.20;;
23596;SDS011;40226;50.874;4.394;2023-12-29T02:05:04;10.45;;;2.20;;
23596;SDS011;40226;50.874;4.394;2023-12-29T02:07:31;12.85;;;2.40;;
23596;SDS011;40226;50.874;4.394;2023-12-29T02:09:57;20.13;;;2.90;;
23596;SDS011;40226;50.874;4.394;2023-12-29T02:12:24;13.40;;;2.58;;
23596;SDS011;40226;50.874;4.394;2023-12-29T02:14:50;8.15;;;2.47;;
23596;SDS011;40226;50.874;4.394;2023-12-29T02:17:19;18.25;;;2.60;;
23596;SDS011;40226;50.874;4.394;2023-12-29T02:19:51;12.43;;;2.60;;
23596;SDS011;40226;50.874;4.394;2023-12-29T02:22:17;9.38;;;2.45;;
23596;SDS011;40226;50.874;4.394;2023-12-29T02:24:47;10.07;;;2.15;;
23596;SDS011;40226;50.874;4.394;2023-12-29T02:32:54;16.45;;;2.40;;
23596;SDS011;40226;50.874;4.394;2023-12-29T02:35:23;13.20;;;2.15;;
23596;SDS011;40226;50.874;4.394;2023-12-29T02:37:51;12.63;;;2.60;;
23596;SDS011;40226;50.874;4.394;2023-12-29T02:40:18;17.52;;;2.63;;
23596;SDS011;40226;50.874;4.394;2023-12-29T02:42:45;14.10;;;3.00;;
23596;SDS011;40226;50.874;4.394;2023-12-29T02:45:14;14.57;;;2.58;;
23596;SDS011;40226;50.874;4.394;2023-12-29T02:47:41;7.90;;;1.88;;
23596;SDS011;40226;50.874;4.394;2023-12-29T02:50:07;19.13;;;2.65;;
23596;SDS011;40226;50.874;4.394;2023-12-29T02:52:33;14.43;;;2.50;;
23596;SDS011;40226;50.874;4.394;2023-12-29T02:54:59;10.02;;;1.95;;
23596;SDS011;40226;50.874;4.394;2023-12-29T02:57:25;13.90;;;2.35;;
23596;SDS011;40226;50.874;4.394;2023-12-29T02:59:50;6.80;;;2.05;;
23596;SDS011;40226;50.874;4.394;2023-12-29T03:02:16;10.43;;;2.70;;
23596;SDS011;40226;50.874;4.394;2023-12-29T03:04:42;10.40;;;2.10;;
23596;SDS011;40226;50.874;4.394;2023-12-29T03:07:07;12.23;;;2.00;;
23596;SDS011;40226;50.874;4.394;2023-12-29T03:09:34;10.32;;;1.90;;
23596;SDS011;40226;50.874;4.394;2023-12-29T03:12:00;10.60;;;2.08;;
23596;SDS011;40226;50.874;4.394;2023-12-29T03:14:25;14.35;;;2.42;;
23596;SDS011;40226;50.874;4.394;2023-12-29T03:16:51;9.05;;;2.17;;
23596;SDS011;40226;50.874;4.394;2023-12-29T03:19:17;25.25;;;2.55;;
23596;SDS011;40226;50.874;4.394;2023-12-29T03:21:42;15.32;;;2.20;;
23596;SDS011;40226;50.874;4.394;2023-12-29T03:24:08;9.18;;;2.10;;
23596;SDS011;40226;50.874;4.394;2023-12-29T03:26:33;13.50;;;2.30;;
23596;SDS011;40226;50.874;4.394;2023-12-29T03:28:59;11.73;;;2.30;;
23596;SDS011;40226;50.874;4.394;2023-12-29T03:31:25;15.32;;;2.90;;
23596;SDS011;40226;50.874;4.394;2023-12-29T03:33:50;9.85;;;2.38;;
23596;SDS011;40226;50.874;4.394;2023-12-29T03:36:16;14.65;;;2.03;;
23596;SDS011;40226;50.874;4.394;2023-12-29T03:38:41;9.88;;;2.53;;
23596;SDS011;40226;50.874;4.394;2023-12-29T03:41:07;15.68;;;2.40;;
23596;SDS011;40226;50.874;4.394;2023-12-29T03:43:32;15.68;;;2.33;;
23596;SDS011;40226;50.874;4.394;2023-12-29T03:45:58;14.50;;;2.60;;
23596;SDS011;40226;50.874;4.394;2023-12-29T03:48:24;16.08;;;2.45;;
23596;SDS011;40226;50.874;4.394;2023-12-29T03:50:49;11.48;;;2.67;;
23596;SDS011;40226;50.874;4.394;2023-12-29T03:53:15;13.77;;;2.85;;
23596;SDS011;40226;50.874;4.394;2023-12-29T03:55:44;14.55;;;2.33;;
23596;SDS011;40226;50.874;4.394;2023-12-29T03:58:10;12.70;;;2.03;;
23596;SDS011;40226;50.874;4.394;2023-12-29T04:00:36;17.38;;;2.47;;
23596;SDS011;40226;50.874;4.394;2023-12-29T04:03:06;15.52;;;2.38;;
23596;SDS011;40226;50.874;4.394;2023-12-29T04:05:32;13.73;;;2.45;;
23596;SDS011;40226;50.874;4.394;2023-12-29T04:07:57;12.50;;;2.08;;
23596;SDS011;40226;50.874;4.394;2023-12-29T04:10:23;10.60;;;2.03;;
23596;SDS011;40226;50.874;4.394;2023-12-29T04:12:48;13.75;;;2.25;;
23596;SDS011;40226;50.874;4.394;2023-12-29T04:15:14;10.75;;;2.20;;
23596;SDS011;40226;50.874;4.394;2023-12-29T04:17:39;14.68;;;2.47;;
23596;SDS011;40226;50.874;4.394;2023-12-29T04:20:05;17.20;;;2.35;;
23596;SDS011;40226;50.874;4.394;2023-12-29T04:22:31;14.20;;;2.28;;
23596;SDS011;40226;50.874;4.394;2023-12-29T04:24:57;21.13;;;3.65;;
23596;SDS011;40226;50.874;4.394;2023-12-29T04:27:22;14.25;;;2.95;;
23596;SDS011;40226;50.874;4.394;2023-12-29T04:29:48;15.00;;;2.45;;
23596;SDS011;40226;50.874;4.394;2023-12-29T04:32:14;12.50;;;2.70;;
23596;SDS011;40226;50.874;4.394;2023-12-29T04:34:39;15.63;;;2.83;;
23596;SDS011;40226;50.874;4.394;2023-12-29T04:37:05;16.48;;;2.90;;
23596;SDS011;40226;50.874;4.394;2023-12-29T04:39:31;12.60;;;2.50;;
23596;SDS011;40226;50.874;4.394;2023-12-29T04:41:56;20.23;;;3.13;;
23596;SDS011;40226;50.874;4.394;2023-12-29T04:44:22;17.50;;;2.53;;
23596;SDS011;40226;50.874;4.394;2023-12-29T04:46:48;18.50;;;2.42;;
23596;SDS011;40226;50.874;4.394;2023-12-29T04:49:13;12.57;;;2.53;;
23596;SDS011;40226;50.874;4.394;2023-12-29T04:51:39;14.63;;;2.70;;
23596;SDS011;40226;50.874;4.394;2023-12-29T04:54:04;10.52;;;2.20;;
23596;SDS011;40226;50.874;4.394;2023-12-29T04:56:30;18.67;;;3.42;;
23596;SDS011;40226;50.874;4.394;2023-12-29T04:58:56;15.07;;;2.75;;
23596;SDS011;40226;50.874;4.394;2023-12-29T05:01:21;14.13;;;2.08;;
23596;SDS011;40226;50.874;4.394;2023-12-29T05:03:47;13.35;;;2.45;;
23596;SDS011;40226;50.874;4.394;2023-12-29T05:06:12;14.27;;;2.50;;
23596;SDS011;40226;50.874;4.394;2023-12-29T05:08:38;9.15;;;2.17;;
23596;SDS011;40226;50.874;4.394;2023-12-29T05:11:04;13.95;;;2.63;;
23596;SDS011;40226;50.874;4.394;2023-12-29T05:13:29;12.68;;;2.22;;
23596;SDS011;40226;50.874;4.394;2023-12-29T05:15:55;11.98;;;2.60;;
23596;SDS011;40226;50.874;4.394;2023-12-29T05:18:21;10.23;;;1.95;;
23596;SDS011;40226;50.874;4.394;2023-12-29T05:20:46;18.27;;;2.40;;
23596;SDS011;40226;50.874;4.394;2023-12-29T05:23:12;13.82;;;2.55;;
23596;SDS011;40226;50.874;4.394;2023-12-29T05:25:37;17.75;;;2.63;;
23596;SDS011;40226;50.874;4.394;2023-12-29T05:28:04;12.38;;;2.50;;
23596;SDS011;40226;50.874;4.394;2023-12-29T05:30:29;14.13;;;2.50;;
23596;SDS011;40226;50.874;4.394;2023-12-29T05:32:57;15.30;;;2.17;;
23596;SDS011;40226;50.874;4.394;2023-12-29T05:35:22;15.80;;;2.55;;
23596;SDS011;40226;50.874;4.394;2023-12-29T05:37:48;17.92;;;2.83;;
23596;SDS011;40226;50.874;4.394;2023-12-29T05:40:15;13.73;;;2.20;;
23596;SDS011;40226;50.874;4.394;2023-12-29T05:42:40;13.43;;;1.98;;
23596;SDS011;40226;50.874;4.394;2023-12-29T05:45:06;19.13;;;2.33;;
23596;SDS011;40226;50.874;4.394;2023-12-29T05:47:32;17.27;;;2.67;;
23596;SDS011;40226;50.874;4.394;2023-12-29T05:49:58;15.38;;;2.85;;
23596;SDS011;40226;50.874;4.394;2023-12-29T05:52:23;15.10;;;2.30;;
23596;SDS011;40226;50.874;4.394;2023-12-29T05:54:49;13.75;;;2.60;;
23596;SDS011;40226;50.874;4.394;2023-12-29T05:57:15;15.57;;;3.13;;
23596;SDS011;40226;50.874;4.394;2023-12-29T05:59:41;19.27;;;2.53;;
23596;SDS011;40226;50.874;4.394;2023-12-29T06:02:06;12.10;;;2.40;;
23596;SDS011;40226;50.874;4.394;2023-12-29T06:04:32;14.60;;;2.25;;
23596;SDS011;40226;50.874;4.394;2023-12-29T06:06:58;12.77;;;2.45;;
23596;SDS011;40226;50.874;4.394;2023-12-29T06:09:23;0.45;;;0.45;;
23596;SDS011;40226;50.874;4.394;2023-12-29T06:11:49;0.10;;;0.10;;
23596;SDS011;40226;50.874;4.394;2023-12-29T06:14:15;0.25;;;0.25;;
23596;SDS011;40226;50.874;4.394;2023-12-29T06:16:40;0.15;;;0.15;;
23596;SDS011;40226;50.874;4.394;2023-12-29T06:19:07;0.80;;;0.80;;
23596;SDS011;40226;50.874;4.394;2023-12-29T06:21:33;0.10;;;0.10;;
23596;SDS011;40226;50.874;4.394;2023-12-29T06:24:05;0.10;;;0.10;;
23596;SDS011;40226;50.874;4.394;2023-12-29T06:26:30;0.30;;;0.30;;
23596;SDS011;40226;50.874;4.394;2023-12-29T06:28:56;0.20;;;0.20;;
23596;SDS011;40226;50.874;4.394;2023-12-29T06:31:21;0.17;;;0.17;;
23596;SDS011;40226;50.874;4.394;2023-12-29T06:33:47;0.10;;;0.10;;
23596;SDS011;40226;50.874;4.394;2023-12-29T06:36:13;1.13;;;0.90;;
23596;SDS011;40226;50.874;4.394;2023-12-29T06:38:39;0.10;;;0.10;;
23596;SDS011;40226;50.874;4.394;2023-12-29T06:41:04;0.65;;;0.65;;
23596;SDS011;40226;50.874;4.394;2023-12-29T06:43:30;0.30;;;0.30;;
23596;SDS011;40226;50.874;4.394;2023-12-29T06:45:56;0.30;;;0.30;;
23596;SDS011;40226;50.874;4.394;2023-12-29T06:48:22;0.10;;;0.10;;
23596;SDS011;40226;50.874;4.394;2023-12-29T06:50:47;0.47;;;0.47;;
23596;SDS011;40226;50.874;4.394;2023-12-29T06:53:13;0.10;;;0.10;;
23596;SDS011;40226;50.874;4.394;2023-12-29T06:55:38;0.52;;;0.52;;
23596;SDS011;40226;50.874;4.394;2023-12-29T06:58:04;3.35;;;1.15;;
23596;SDS011;40226;50.874;4.394;2023-12-29T07:00:30;0.10;;;0.10;;
23596;SDS011;40226;50.874;4.394;2023-12-29T07:02:56;0.20;;;0.20;;
23596;SDS011;40226;50.874;4.394;2023-12-29T07:05:21;0.20;;;0.20;;
23596;SDS011;40226;50.874;4.394;2023-12-29T07:07:47;0.75;;;0.75;;
23596;SDS011;40226;50.874;4.394;2023-12-29T07:10:13;0.32;;;0.32;;
23596;SDS011;40226;50.874;4.394;2023-12-29T07:12:40;0.40;;;0.40;;
23596;SDS011;40226;50.874;4.394;2023-12-29T07:15:06;11.05;;;0.52;;
23596;SDS011;40226;50.874;4.394;2023-12-29T07:17:32;0.20;;;0.20;;
23596;SDS011;40226;50.874;4.394;2023-12-29T07:19:57;0.10;;;0.10;;
23596;SDS011;40226;50.874;4.394;2023-12-29T07:22:23;0.15;;;0.15;;
23596;SDS011;40226;50.874;4.394;2023-12-29T07:24:49;0.15;;;0.15;;
23596;SDS011;40226;50.874;4.394;2023-12-29T07:27:14;0.73;;;0.73;;
23596;SDS011;40226;50.874;4.394;2023-12-29T07:29:40;0.10;;;0.10;;
23596;SDS011;40226;50.874;4.394;2023-12-29T07:32:06;0.10;;;0.10;;
23596;SDS011;40226;50.874;4.394;2023-12-29T07:34:32;0.82;;;0.43;;
23596;SDS011;40226;50.874;4.394;2023-12-29T07:36:57;0.35;;;0.35;;
23596;SDS011;40226;50.874;4.394;2023-12-29T07:39:23;0.52;;;0.52;;
23596;SDS011;40226;50.874;4.394;2023-12-29T07:41:49;0.20;;;0.20;;
23596;SDS011;40226;50.874;4.394;2023-12-29T07:44:18;0.22;;;0.22;;
23596;SDS011;40226;50.874;4.394;2023-12-29T07:46:44;0.17;;;0.17;;
23596;SDS011;40226;50.874;4.394;2023-12-29T07:49:10;0.20;;;0.20;;
23596;SDS011;40226;50.874;4.394;2023-12-29T07:51:42;0.20;;;0.20;;
23596;SDS011;40226;50.874;4.394;2023-12-29T07:54:08;0.30;;;0.30;;
23596;SDS011;40226;50.874;4.394;2023-12-29T07:56:34;0.20;;;0.20;;
23596;SDS011;40226;50.874;4.394;2023-12-29T07:59:01;0.20;;;0.20;;
23596;SDS011;40226;50.874;4.394;2023-12-29T08:01:27;0.10;;;0.10;;
23596;SDS011;40226;50.874;4.394;2023-12-29T08:03:53;0.22;;;0.22;;
23596;SDS011;40226;50.874;4.394;2023-12-29T08:06:19;1.55;;;1.45;;
23596;SDS011;40226;50.874;4.394;2023-12-29T08:08:44;0.20;;;0.20;;
23596;SDS011;40226;50.874;4.394;2023-12-29T08:11:16;0.20;;;0.20;;
23596;SDS011;40226;50.874;4.394;2023-12-29T08:13:43;0.20;;;0.20;;
23596;SDS011;40226;50.874;4.394;2023-12-29T08:16:10;0.90;;;0.85;;
23596;SDS011;40226;50.874;4.394;2023-12-29T08:18:35;0.47;;;0.47;;
23596;SDS011;40226;50.874;4.394;2023-12-29T08:21:01;0.30;;;0.30;;
23596;SDS011;40226;50.874;4.394;2023-12-29T08:23:27;0.70;;;0.70;;
23596;SDS011;40226;50.874;4.394;2023-12-29T08:25:53;0.55;;;0.55;;
23596;SDS011;40226;50.874;4.394;2023-12-29T08:28:20;0.47;;;0.47;;
23596;SDS011;40226;50.874;4.394;2023-12-29T08:30:46;0.25;;;0.25;;
23596;SDS011;40226;50.874;4.394;2023-12-29T08:33:12;4.38;;;1.52;;
23596;SDS011;40226;50.874;4.394;2023-12-29T08:35:41;0.10;;;0.10;;
23596;SDS011;40226;50.874;4.394;2023-12-29T08:38:07;0.10;;;0.10;;
23596;SDS011;40226;50.874;4.394;2023-12-29T08:40:33;4.13;;;0.52;;
23596;SDS011;40226;50.874;4.394;2023-12-29T08:42:58;0.15;;;0.15;;
23596;SDS011;40226;50.874;4.394;2023-12-29T08:45:26;0.20;;;0.20;;
23596;SDS011;40226;50.874;4.394;2023-12-29T08:47:52;0.30;;;0.30;;
23596;SDS011;40226;50.874;4.394;2023-12-29T08:50:17;0.85;;;0.77;;
23596;SDS011;40226;50.874;4.394;2023-12-29T08:52:43;0.95;;;0.95;;
23596;SDS011;40226;50.874;4.394;2023-12-29T08:55:08;0.98;;;0.98;;
23596;SDS011;40226;50.874;4.394;2023-12-29T08:57:35;3.40;;;0.90;;
23596;SDS011;40226;50.874;4.394;2023-12-29T09:00:00;0.17;;;0.17;;
23596;SDS011;40226;50.874;4.394;2023-12-29T09:02:26;2.28;;;1.55;;
23596;SDS011;40226;50.874;4.394;2023-12-29T09:04:51;0.13;;;0.13;;
23596;SDS011;40226;50.874;4.394;2023-12-29T09:07:17;0.85;;;0.85;;
23596;SDS011;40226;50.874;4.394;2023-12-29T09:09:42;0.47;;;0.45;;
23596;SDS011;40226;50.874;4.394;2023-12-29T09:12:08;0.10;;;0.10;;
23596;SDS011;40226;50.874;4.394;2023-12-29T09:14:34;0.90;;;0.68;;
23596;SDS011;40226;50.874;4.394;2023-12-29T09:16:59;0.10;;;0.10;;
23596;SDS011;40226;50.874;4.394;2023-12-29T09:19:26;0.10;;;0.10;;
23596;SDS011;40226;50.874;4.394;2023-12-29T09:21:51;0.10;;;0.10;;
23596;SDS011;40226;50.874;4.394;2023-12-29T09:24:17;1.77;;;1.67;;
23596;SDS011;40226;50.874;4.394;2023-12-29T09:26:43;0.10;;;0.10;;
23596;SDS011;40226;50.874;4.394;2023-12-29T09:29:09;0.30;;;0.30;;
23596;SDS011;40226;50.874;4.394;2023-12-29T09:31:34;0.50;;;0.50;;
23596;SDS011;40226;50.874;4.394;2023-12-29T09:34:01;0.20;;;0.20;;
23596;SDS011;40226;50.874;4.394;2023-12-29T09:36:27;0.10;;;0.10;;
23596;SDS011;40226;50.874;4.394;2023-12-29T09:38:52;0.25;;;0.25;;
23596;SDS011;40226;50.874;4.394;2023-12-29T09:41:19;0.20;;;0.20;;
23596;SDS011;40226;50.874;4.394;2023-12-29T09:43:48;0.70;;;0.43;;
23596;SDS011;40226;50.874;4.394;2023-12-29T09:46:15;0.17;;;0.17;;
23596;SDS011;40226;50.874;4.394;2023-12-29T09:48:42;0.10;;;0.10;;
23596;SDS011;40226;50.874;4.394;2023-12-29T09:51:11;0.10;;;0.10;;
23596;SDS011;40226;50.874;4.394;2023-12-29T09:53:38;0.82;;;0.82;;
23596;SDS011;40226;50.874;4.394;2023-12-29T09:56:07;0.13;;;0.13;;
23596;SDS011;40226;50.874;4.394;2023-12-29T09:58:34;0.20;;;0.20;;
23596;SDS011;40226;50.874;4.394;2023-12-29T10:01:03;0.57;;;0.57;;
23596;SDS011;40226;50.874;4.394;2023-12-29T10:03:30;0.10;;;0.10;;
23596;SDS011;40226;50.874;4.394;2023-12-29T10:05:56;0.10;;;0.10;;
23596;SDS011;40226;50.874;4.394;2023-12-29T10:08:32;1.77;;;0.85;;
23596;SDS011;40226;50.874;4.394;2023-12-29T10:10:59;0.30;;;0.30;;
23596;SDS011;40226;50.874;4.394;2023-12-29T10:13:27;7.53;;;0.68;;
23596;SDS011;40226;50.874;4.394;2023-12-29T10:18:32;1.25;;;0.80;;
23596;SDS011;40226;50.874;4.394;2023-12-29T10:23:58;0.50;;;0.47;;
23596;SDS011;40226;50.874;4.394;2023-12-29T10:26:34;0.20;;;0.20;;
23596;SDS011;40226;50.874;4.394;2023-12-29T10:29:00;0.20;;;0.20;;
23596;SDS011;40226;50.874;4.394;2023-12-29T10:31:26;0.10;;;0.10;;
23596;SDS011;40226;50.874;4.394;2023-12-29T10:33:52;0.10;;;0.10;;
23596;SDS011;40226;50.874;4.394;2023-12-29T10:36:17;0.10;;;0.10;;
23596;SDS011;40226;50.874;4.394;2023-12-29T10:38:43;0.55;;;0.55;;
23596;SDS011;40226;50.874;4.394;2023-12-29T10:41:13;0.20;;;0.20;;
23596;SDS011;40226;50.874;4.394;2023-12-29T10:46:10;0.10;;;0.10;;
23596;SDS011;40226;50.874;4.394;2023-12-29T10:48:36;0.20;;;0.20;;
23596;SDS011;40226;50.874;4.394;2023-12-29T10:51:03;0.20;;;0.20;;
23596;SDS011;40226;50.874;4.394;2023-12-29T10:53:29;0.30;;;0.30;;
23596;SDS011;40226;50.874;4.394;2023-12-29T10:55:56;0.10;;;0.10;;
23596;SDS011;40226;50.874;4.394;2023-12-29T10:58:25;0.40;;;0.32;;
23596;SDS011;40226;50.874;4.394;2023-12-29T11:00:58;0.50;;;0.50;;
23596;SDS011;40226;50.874;4.394;2023-12-29T11:03:26;0.10;;;0.10;;
23596;SDS011;40226;50.874;4.394;2023-12-29T11:05:58;0.10;;;0.10;;
23596;SDS011;40226;50.874;4.394;2023-12-29T11:08:27;0.75;;;0.45;;
23596;SDS011;40226;50.874;4.394;2023-12-29T11:10:53;0.22;;;0.22;;
23596;SDS011;40226;50.874;4.394;2023-12-29T11:13:19;0.10;;;0.10;;
23596;SDS011;40226;50.874;4.394;2023-12-29T11:15:45;0.88;;;0.85;;
23596;SDS011;40226;50.874;4.394;2023-12-29T11:18:12;0.10;;;0.10;;
23596;SDS011;40226;50.874;4.394;2023-12-29T11:20:42;0.30;;;0.30;;
23596;SDS011;40226;50.874;4.394;2023-12-29T11:23:10;0.10;;;0.10;;
23596;SDS011;40226;50.874;4.394;2023-12-29T11:25:38;0.40;;;0.40;;
23596;SDS011;40226;50.874;4.394;2023-12-29T11:28:04;0.20;;;0.20;;
23596;SDS011;40226;50.874;4.394;2023-12-29T11:30:33;0.43;;;0.43;;
23596;SDS011;40226;50.874;4.394;2023-12-29T11:33:01;2.05;;;1.45;;
23596;SDS011;40226;50.874;4.394;2023-12-29T11:35:28;0.57;;;0.57;;
23596;SDS011;40226;50.874;4.394;2023-12-29T11:43:36;0.70;;;0.52;;
23596;SDS011;40226;50.874;4.394;2023-12-29T11:46:03;2.63;;;1.13;;
23596;SDS011;40226;50.874;4.394;2023-12-29T11:51:35;1.05;;;1.05;;
23596;SDS011;40226;50.874;4.394;2023-12-29T11:54:05;0.20;;;0.20;;
23596;SDS011;40226;50.874;4.394;2023-12-29T11:56:35;0.10;;;0.10;;
23596;SDS011;40226;50.874;4.394;2023-12-29T11:59:26;0.00;;;0.00;;
23596;SDS011;40226;50.874;4.394;2023-12-29T12:04:39;0.10;;;0.10;;
23596;SDS011;40226;50.874;4.394;2023-12-29T12:12:40;2.38;;;0.30;;
23596;SDS011;40226;50.874;4.394;2023-12-29T12:17:52;0.10;;;0.10;;
23596;SDS011;40226;50.874;4.394;2023-12-29T12:20:17;0.10;;;0.10;;
23596;SDS011;40226;50.874;4.394;2023-12-29T12:22:43;0.25;;;0.20;;
23596;SDS011;40226;50.874;4.394;2023-12-29T12:25:11;0.43;;;0.43;;
23596;SDS011;40226;50.874;4.394;2023-12-29T12:27:37;0.30;;;0.30;;
23596;SDS011;40226;50.874;4.394;2023-12-29T12:30:03;0.10;;;0.10;;
23596;SDS011;40226;50.874;4.394;2023-12-29T12:32:29;0.60;;;0.38;;
23596;SDS011;40226;50.874;4.394;2023-12-29T12:34:55;0.50;;;0.50;;
23596;SDS011;40226;50.874;4.394;2023-12-29T12:37:28;15.43;;;1.50;;
23596;SDS011;40226;50.874;4.394;2023-12-29T12:39:54;0.43;;;0.43;;
23596;SDS011;40226;50.874;4.394;2023-12-29T12:42:21;0.68;;;0.68;;
23596;SDS011;40226;50.874;4.394;2023-12-29T12:47:45;0.45;;;0.45;;
23596;SDS011;40226;50.874;4.394;2023-12-29T12:50:16;0.20;;;0.20;;
23596;SDS011;40226;50.874;4.394;2023-12-29T12:52:42;0.90;;;0.77;;
23596;SDS011;40226;50.874;4.394;2023-12-29T12:55:08;0.20;;;0.20;;
23596;SDS011;40226;50.874;4.394;2023-12-29T12:57:34;0.10;;;0.10;;
23596;SDS011;40226;50.874;4.394;2023-12-29T13:00:02;0.20;;;0.20;;
23596;SDS011;40226;50.874;4.394;2023-12-29T13:02:28;0.10;;;0.10;;
23596;SDS011;40226;50.874;4.394;2023-12-29T13:04:55;0.03;;;0.03;;
23596;SDS011;40226;50.874;4.394;2023-12-29T13:07:21;0.10;;;0.10;;
23596;SDS011;40226;50.874;4.394;2023-12-29T13:09:48;2.85;;;1.27;;
23596;SDS011;40226;50.874;4.394;2023-12-29T13:12:15;0.10;;;0.10;;
23596;SDS011;40226;50.874;4.394;2023-12-29T13:14:41;2.50;;;1.73;;
23596;SDS011;40226;50.874;4.394;2023-12-29T13:17:08;0.10;;;0.10;;
23596;SDS011;40226;50.874;4.394;2023-12-29T13:19:37;0.25;;;0.25;;
23596;SDS011;40226;50.874;4.394;2023-12-29T13:22:07;0.10;;;0.10;;
23596;SDS011;40226;50.874;4.394;2023-12-29T13:24:34;0.25;;;0.25;;
23596;SDS011;40226;50.874;4.394;2023-12-29T13:27:06;0.20;;;0.20;;
23596;SDS011;40226;50.874;4.394;2023-12-29T13:29:35;0.30;;;0.30;;
23596;SDS011;40226;50.874;4.394;2023-12-29T13:32:04;0.10;;;0.10;;
23596;SDS011;40226;50.874;4.394;2023-12-29T13:42:35;0.20;;;0.20;;
23596;SDS011;40226;50.874;4.394;2023-12-29T13:45:05;0.05;;;0.05;;
23596;SDS011;40226;50.874;4.394;2023-12-29T13:47:34;0.15;;;0.15;;
23596;SDS011;40226;50.874;4.394;2023-12-29T13:50:01;0.10;;;0.10;;
23596;SDS011;40226;50.874;4.394;2023-12-29T13:52:28;0.10;;;0.10;;
23596;SDS011;40226;50.874;4.394;2023-12-29T13:54:53;0.10;;;0.10;;
23596;SDS011;40226;50.874;4.394;2023-12-29T13:57:29;0.10;;;0.10;;
23596;SDS011;40226;50.874;4.394;2023-12-29T14:00:13;0.40;;;0.40;;
23596;SDS011;40226;50.874;4.394;2023-12-29T14:02:40;0.20;;;0.20;;
23596;SDS011;40226;50.874;4.394;2023-12-29T14:05:10;0.90;;;0.85;;
23596;SDS011;40226;50.874;4.394;2023-12-29T14:07:37;0.10;;;0.10;;
23596;SDS011;40226;50.874;4.394;2023-12-29T14:10:09;0.30;;;0.30;;
23596;SDS011;40226;50.874;4.394;2023-12-29T14:12:35;1.80;;;1.00;;
23596;SDS011;40226;50.874;4.394;2023-12-29T14:15:04;0.25;;;0.25;;
23596;SDS011;40226;50.874;4.394;2023-12-29T14:17:30;0.10;;;0.10;;
23596;SDS011;40226;50.874;4.394;2023-12-29T14:19:58;0.28;;;0.28;;
23596;SDS011;40226;50.874;4.394;2023-12-29T14:22:29;0.15;;;0.15;;
23596;SDS011;40226;50.874;4.394;2023-12-29T14:25:04;0.17;;;0.17;;
23596;SDS011;40226;50.874;4.394;2023-12-29T14:27:31;0.25;;;0.25;;
23596;SDS011;40226;50.874;4.394;2023-12-29T14:29:56;0.20;;;0.20;;
23596;SDS011;40226;50.874;4.394;2023-12-29T14:32:23;0.10;;;0.10;;
23596;SDS011;40226;50.874;4.394;2023-12-29T14:34:49;1.55;;;0.85;;
23596;SDS011;40226;50.874;4.394;2023-12-29T14:37:21;0.65;;;0.55;;
23596;SDS011;40226;50.874;4.394;2023-12-29T14:39:49;0.90;;;0.82;;
23596;SDS011;40226;50.874;4.394;2023-12-29T14:42:15;0.13;;;0.13;;
23596;SDS011;40226;50.874;4.394;2023-12-29T14:44:41;0.63;;;0.63;;
23596;SDS011;40226;50.874;4.394;2023-12-29T14:47:07;0.10;;;0.10;;
23596;SDS011;40226;50.874;4.394;2023-12-29T14:49:32;0.75;;;0.75;;
23596;SDS011;40226;50.874;4.394;2023-12-29T14:51:58;0.10;;;0.10;;
23596;SDS011;40226;50.874;4.394;2023-12-29T14:54:24;0.47;;;0.47;;
23596;SDS011;40226;50.874;4.394;2023-12-29T14:56:49;0.10;;;0.10;;
23596;SDS011;40226;50.874;4.394;2023-12-29T14:59:15;0.50;;;0.32;;
23596;SDS011;40226;50.874;4.394;2023-12-29T15:01:41;0.10;;;0.10;;
23596;SDS011;40226;50.874;4.394;2023-12-29T15:04:07;0.10;;;0.10;;
23596;SDS011;40226;50.874;4.394;2023-12-29T15:06:36;0.20;;;0.20;;
23596;SDS011;40226;50.874;4.394;2023-12-29T15:09:02;0.20;;;0.20;;
23596;SDS011;40226;50.874;4.394;2023-12-29T15:11:28;0.10;;;0.10;;
23596;SDS011;40226;50.874;4.394;2023-12-29T15:13:53;1.33;;;1.23;;
23596;SDS011;40226;50.874;4.394;2023-12-29T15:16:19;0.10;;;0.10;;
23596;SDS011;40226;50.874;4.394;2023-12-29T15:18:45;0.00;;;0.00;;
23596;SDS011;40226;50.874;4.394;2023-12-29T15:21:10;0.60;;;0.60;;
23596;SDS011;40226;50.874;4.394;2023-12-29T15:23:36;0.10;;;0.10;;